createdAt,value
2022-08-10T00:00:43.528Z,51.44
2022-08-10T00:01:43.571Z,52.44
2022-08-10T00:02:43.509Z,52.34
2022-08-10T00:03:43.495Z,52.04
2022-08-10T00:04:43.481Z,51.74
2022-08-10T00:05:52.722Z,52.14
2022-08-10T00:06:44.481Z,52.04
2022-08-10T00:07:43.441Z,51.64
2022-08-10T00:08:43.442Z,51.14
2022-08-10T00:09:50.759Z,50.84
2022-08-10T00:10:44.413Z,51.44
2022-08-10T00:11:43.430Z,51.74
2022-08-10T00:12:54.638Z,51.94
2022-08-10T00:13:44.394Z,51.44
2022-08-10T00:14:43.376Z,51.84
2022-08-10T00:15:44.400Z,51.44
2022-08-10T00:16:44.375Z,51.34
2022-08-10T00:17:43.343Z,51.97
2022-08-10T00:18:43.328Z,51.74
2022-08-10T00:20:02.557Z,51.67
2022-08-10T00:20:44.326Z,51.67
2022-08-10T00:21:43.322Z,52.07
2022-08-10T00:22:53.057Z,52.27
2022-08-10T00:23:44.281Z,51.46
2022-08-10T00:24:43.344Z,51.46
2022-08-10T00:25:43.259Z,51.77
2022-08-10T00:27:51.681Z,51.37
2022-08-10T00:27:52.569Z,51.57
2022-08-10T00:28:44.230Z,52.27
2022-08-10T00:29:43.219Z,52.07
2022-08-10T00:30:43.210Z,51.97
2022-08-10T00:31:58.615Z,52.17
2022-08-10T00:32:44.191Z,51.97
2022-08-10T00:33:43.180Z,51.87
2022-08-10T00:34:43.163Z,52.47
2022-08-10T00:35:43.152Z,51.87
2022-08-10T00:36:43.163Z,52.07
2022-08-10T00:37:43.133Z,51.57
2022-08-10T00:38:44.126Z,51.57
2022-08-10T00:39:43.170Z,51.77
2022-08-10T00:40:43.311Z,51.77
2022-08-10T00:41:43.113Z,52.07
2022-08-10T00:42:43.085Z,52.27
2022-08-10T00:43:43.065Z,51.97
2022-08-10T00:44:43.057Z,51.97
2022-08-10T00:45:43.047Z,51.97
2022-08-10T00:46:43.067Z,51.97
2022-08-10T00:47:43.027Z,51.87
2022-08-10T00:48:43.018Z,51.87
2022-08-10T00:49:43.009Z,51.87
2022-08-10T00:50:42.999Z,52.07
2022-08-10T00:51:48.352Z,52.07
2022-08-10T00:52:43.983Z,51.37
2022-08-10T00:53:42.969Z,51.46
2022-08-10T00:54:42.961Z,51.46
2022-08-10T00:56:41.668Z,51.37
2022-08-10T00:57:17.907Z,51.17
2022-08-10T00:57:43.920Z,51.17
2022-08-10T00:58:42.913Z,50.96
2022-08-10T00:59:58.874Z,51.07
2022-08-10T01:00:43.893Z,50.96
2022-08-10T01:02:10.045Z,51.07
2022-08-10T01:02:43.946Z,50.87
2022-08-10T01:04:39.818Z,51.17
2022-08-10T01:05:00.390Z,50.96
2022-08-10T01:05:51.214Z,51.27
2022-08-10T01:06:43.834Z,51.46
2022-08-10T01:07:42.835Z,51.37
2022-08-10T01:08:42.817Z,51.17
2022-08-10T01:09:42.796Z,50.76
2022-08-10T01:10:43.786Z,51.17
2022-08-10T01:12:40.981Z,50.76
2022-08-10T01:12:43.795Z,51.07
2022-08-10T01:13:42.756Z,50.67
2022-08-10T01:14:42.748Z,50.96
2022-08-10T01:15:42.731Z,51.17
2022-08-10T01:16:42.727Z,51.46
2022-08-10T01:17:50.475Z,51.27
2022-08-10T01:18:43.707Z,50.96
2022-08-10T01:19:42.691Z,51.67
2022-08-10T01:20:42.685Z,51.57
2022-08-10T01:21:54.168Z,52.09
2022-08-10T01:22:43.682Z,51.79
2022-08-10T01:23:42.642Z,51.79
2022-08-10T01:24:42.644Z,51.99
2022-08-10T01:26:12.478Z,52.19
2022-08-10T01:26:43.620Z,52.42
2022-08-10T01:27:42.626Z,52.32
2022-08-10T01:28:42.593Z,52.42
2022-08-10T01:29:42.589Z,52.82
2022-08-10T01:30:42.596Z,52.82
2022-08-10T01:31:42.574Z,52.92
2022-08-10T01:32:42.588Z,53.22
2022-08-10T01:33:59.120Z,53.02
2022-08-10T01:34:43.536Z,53.22
2022-08-10T01:35:42.526Z,53.02
2022-08-10T01:36:42.518Z,52.92
2022-08-10T01:37:42.518Z,53.55
2022-08-10T01:38:43.488Z,53.22
2022-08-10T01:39:42.529Z,53.02
2022-08-10T01:40:42.469Z,52.82
2022-08-10T01:41:46.080Z,52.72
2022-08-10T01:42:42.471Z,52.72
2022-08-10T01:43:42.443Z,52.72
2022-08-10T01:44:42.429Z,52.82
2022-08-10T01:45:44.785Z,52.82
2022-08-10T01:46:42.410Z,52.92
2022-08-10T01:47:42.412Z,53.12
2022-08-10T01:48:42.392Z,52.42
2022-08-10T01:49:42.373Z,51.82
2022-08-10T01:50:53.382Z,51.51
2022-08-10T01:51:43.353Z,52.72
2022-08-10T01:52:42.362Z,52.92
2022-08-10T01:53:42.324Z,52.52
2022-08-10T01:54:42.325Z,52.42
2022-08-10T01:55:42.304Z,52.32
2022-08-10T01:56:42.306Z,52.22
2022-08-10T01:57:42.310Z,52.12
2022-08-10T01:58:42.282Z,52.92
2022-08-10T01:59:42.275Z,52.12
2022-08-10T02:00:43.256Z,52.12
2022-08-10T02:01:42.339Z,51.92
2022-08-10T02:02:42.257Z,52.12
2022-08-10T02:04:05.427Z,52.22
2022-08-10T02:04:43.217Z,52.32
2022-08-10T02:05:42.212Z,52.42
2022-08-10T02:06:42.200Z,51.92
2022-08-10T02:07:42.199Z,52.12
2022-08-10T02:08:42.171Z,52.42
2022-08-10T02:09:42.159Z,52.52
2022-08-10T02:10:42.150Z,52.84
2022-08-10T02:12:05.180Z,52.82
2022-08-10T02:12:43.159Z,52.92
2022-08-10T02:13:42.121Z,52.72
2022-08-10T02:14:42.113Z,52.72
2022-08-10T02:16:01.267Z,52.52
2022-08-10T02:16:43.082Z,52.84
2022-08-10T02:17:56.978Z,53.05
2022-08-10T02:18:43.064Z,52.84
2022-08-10T02:19:42.054Z,53.34
2022-08-10T02:20:42.047Z,53.14
2022-08-10T02:21:42.045Z,53.05
2022-08-10T02:22:43.046Z,53.25
2022-08-10T02:23:42.016Z,53.14
2022-08-10T02:24:42.005Z,53.45
2022-08-10T02:25:43.753Z,53.45
2022-08-10T02:26:41.978Z,53.55
2022-08-10T02:27:41.987Z,53.07
2022-08-10T02:28:41.958Z,53.57
2022-08-10T02:29:42.263Z,53.57
2022-08-10T02:30:41.941Z,53.47
2022-08-10T02:31:41.928Z,53.47
2022-08-10T02:32:42.248Z,53.87
2022-08-10T02:33:56.438Z,54.07
2022-08-10T02:34:42.899Z,54.17
2022-08-10T02:35:54.448Z,54.07
2022-08-10T02:36:42.900Z,54.27
2022-08-10T02:37:41.900Z,54.20
2022-08-10T02:38:58.464Z,54.10
2022-08-10T02:39:42.882Z,54.40
2022-08-10T02:45:00.819Z,54.20
2022-08-10T02:45:02.155Z,54.20
2022-08-10T02:45:15.063Z,54.10
2022-08-10T02:45:18.216Z,54.00
2022-08-10T02:45:20.367Z,54.10
2022-08-10T02:45:42.773Z,54.00
2022-08-10T02:46:41.765Z,53.70
2022-08-10T02:47:50.792Z,54.30
2022-08-10T02:48:42.743Z,54.00
2022-08-10T02:49:41.727Z,53.90
2022-08-10T02:50:41.717Z,54.50
2022-08-10T02:52:06.407Z,54.30
2022-08-10T02:52:42.725Z,54.20
2022-08-10T02:53:55.269Z,53.80
2022-08-10T02:54:42.677Z,53.70
2022-08-10T02:55:41.661Z,53.90
2022-08-10T02:56:41.658Z,54.20
2022-08-10T02:58:12.659Z,54.00
2022-08-10T02:58:42.639Z,54.20
2022-08-10T02:59:41.621Z,54.20
2022-08-10T03:00:41.671Z,54.30
2022-08-10T03:01:41.629Z,54.50
2022-08-10T03:02:41.611Z,54.00
2022-08-10T03:03:41.575Z,53.70
2022-08-10T03:04:55.378Z,54.20
2022-08-10T03:05:42.559Z,54.20
2022-08-10T03:06:41.710Z,53.70
2022-08-10T03:07:43.766Z,53.90
2022-08-10T03:08:41.523Z,53.80
2022-08-10T03:09:41.521Z,54.10
2022-08-10T03:10:41.504Z,54.60
2022-08-10T03:12:37.426Z,54.60
2022-08-10T03:12:42.503Z,54.40
2022-08-10T03:13:41.466Z,54.70
2022-08-10T03:14:41.467Z,54.53
2022-08-10T03:15:41.446Z,54.63
2022-08-10T03:16:41.446Z,54.93
2022-08-10T03:17:41.446Z,54.72
2022-08-10T03:18:42.417Z,54.63
2022-08-10T03:20:35.045Z,54.63
2022-08-10T03:20:42.400Z,54.72
2022-08-10T03:21:41.389Z,54.72
2022-08-10T03:22:41.406Z,54.53
2022-08-10T03:23:41.359Z,54.83
2022-08-10T03:24:41.359Z,55.13
2022-08-10T03:25:41.347Z,55.03
2022-08-10T03:26:42.329Z,54.93
2022-08-10T03:27:41.340Z,55.23
2022-08-10T03:28:41.322Z,55.23
2022-08-10T03:30:29.983Z,54.63
2022-08-10T03:30:42.292Z,55.23
2022-08-10T03:31:41.278Z,54.93
2022-08-10T03:32:41.230Z,54.96
2022-08-10T03:33:41.230Z,55.23
2022-08-10T03:34:41.250Z,55.46
2022-08-10T03:35:41.235Z,55.46
2022-08-10T03:36:45.119Z,54.96
2022-08-10T03:37:41.215Z,55.46
2022-08-10T03:38:41.225Z,55.16
2022-08-10T03:39:41.235Z,55.46
2022-08-10T03:40:46.135Z,55.26
2022-08-10T03:41:42.174Z,55.66
2022-08-10T03:42:42.124Z,55.16
2022-08-10T03:43:41.118Z,55.05
2022-08-10T03:44:41.088Z,55.35
2022-08-10T03:45:55.020Z,55.16
2022-08-10T03:46:42.068Z,55.16
2022-08-10T03:47:41.058Z,55.35
2022-08-10T03:48:49.321Z,55.26
2022-08-10T03:49:42.029Z,55.16
2022-08-10T03:50:51.422Z,55.05
2022-08-10T03:51:42.010Z,55.86
2022-08-10T03:52:41.010Z,55.55
2022-08-10T03:54:02.702Z,55.86
2022-08-10T03:54:41.989Z,55.66
2022-08-10T03:56:28.845Z,55.55
2022-08-10T03:56:41.960Z,55.66
2022-08-10T03:57:44.001Z,55.05
2022-08-10T03:58:41.972Z,55.05
2022-08-10T03:59:40.931Z,55.35
2022-08-10T04:00:40.985Z,55.48
2022-08-10T04:02:46.397Z,56.09
2022-08-10T04:02:52.998Z,55.68
2022-08-10T04:03:41.905Z,56.09
2022-08-10T04:04:40.884Z,56.19
2022-08-10T04:05:40.865Z,55.79
2022-08-10T04:06:40.855Z,56.69
2022-08-10T04:07:40.845Z,56.49
2022-08-10T04:08:40.856Z,56.59
2022-08-10T04:09:53.117Z,56.59
2022-08-10T04:10:41.818Z,56.69
2022-08-10T04:11:40.867Z,56.38
2022-08-10T04:12:40.796Z,56.69
2022-08-10T04:13:40.807Z,56.69
2022-08-10T04:14:51.249Z,56.69
2022-08-10T04:15:41.759Z,56.59
2022-08-10T04:16:40.749Z,56.49
2022-08-10T04:18:03.006Z,56.99
2022-08-10T04:18:41.752Z,56.99
2022-08-10T04:19:40.728Z,56.79
2022-08-10T04:20:40.713Z,57.19
2022-08-10T04:21:40.701Z,56.69
2022-08-10T04:22:40.693Z,56.49
2022-08-10T04:23:40.710Z,56.71
2022-08-10T04:24:40.670Z,56.92
2022-08-10T04:25:40.662Z,57.22
2022-08-10T04:26:40.654Z,57.22
2022-08-10T04:27:40.642Z,57.32
2022-08-10T04:28:40.643Z,56.82
2022-08-10T04:29:40.623Z,57.12
2022-08-10T04:30:40.603Z,57.22
2022-08-10T04:31:41.451Z,57.62
2022-08-10T04:32:41.074Z,57.32
2022-08-10T04:33:40.605Z,57.12
2022-08-10T04:34:40.569Z,57.42
2022-08-10T04:35:40.556Z,57.42
2022-08-10T04:36:40.545Z,57.12
2022-08-10T04:37:46.731Z,57.32
2022-08-10T04:38:41.537Z,57.22
2022-08-10T04:39:40.552Z,57.32
2022-08-10T04:40:40.498Z,56.71
2022-08-10T04:41:46.093Z,56.82
2022-08-10T04:42:41.480Z,57.22
2022-08-10T04:43:40.498Z,57.72
2022-08-10T04:44:40.460Z,57.92
2022-08-10T04:45:50.193Z,57.12
2022-08-10T04:46:55.841Z,57.42
2022-08-10T04:47:57.327Z,57.62
2022-08-10T04:48:59.772Z,57.50
2022-08-10T04:49:55.479Z,57.50
2022-08-10T04:50:41.395Z,57.19
2022-08-10T04:51:40.391Z,58.00
2022-08-10T04:52:40.376Z,58.00
2022-08-10T04:54:03.957Z,57.50
2022-08-10T04:54:41.806Z,57.59
2022-08-10T04:55:40.344Z,57.19
2022-08-10T04:56:40.335Z,57.29
2022-08-10T04:57:40.336Z,57.90
2022-08-10T04:58:40.334Z,57.50
2022-08-10T04:59:40.315Z,57.90
2022-08-10T05:00:40.318Z,57.59
2022-08-10T05:02:30.088Z,57.29
2022-08-10T05:02:41.376Z,57.50
2022-08-10T05:04:35.448Z,57.39
2022-08-10T05:04:41.247Z,57.29
2022-08-10T05:05:40.239Z,57.19
2022-08-10T05:06:40.241Z,56.99
2022-08-10T05:07:53.734Z,57.39
2022-08-10T05:08:41.229Z,57.50
2022-08-10T05:10:02.191Z,57.57
2022-08-10T05:10:41.213Z,57.06
2022-08-10T05:11:40.180Z,57.77
2022-08-10T05:12:40.277Z,57.46
2022-08-10T05:13:40.180Z,57.67
2022-08-10T05:14:40.142Z,56.56
2022-08-10T05:15:40.140Z,57.06
2022-08-10T05:16:40.130Z,56.46
2022-08-10T05:17:40.122Z,56.66
2022-08-10T05:18:40.133Z,56.26
2022-08-10T05:20:03.945Z,55.96
2022-08-10T05:20:41.074Z,56.46
2022-08-10T05:22:03.144Z,56.46
2022-08-10T05:22:41.371Z,55.86
2022-08-10T05:23:40.074Z,56.16
2022-08-10T05:24:40.063Z,56.66
2022-08-10T05:25:40.035Z,56.84
2022-08-10T05:27:00.207Z,56.93
2022-08-10T05:27:41.013Z,56.93
2022-08-10T05:28:39.996Z,57.14
2022-08-10T05:29:40.018Z,56.84
2022-08-10T05:30:39.978Z,56.13
2022-08-10T05:31:39.969Z,55.83
2022-08-10T05:32:57.755Z,55.73
2022-08-10T05:33:40.948Z,55.43
2022-08-10T05:34:39.959Z,55.93
2022-08-10T05:35:57.734Z,56.13
2022-08-10T05:36:40.910Z,55.91
2022-08-10T05:38:11.451Z,56.21
2022-08-10T05:38:40.891Z,56.10
2022-08-10T05:39:39.943Z,55.91
2022-08-10T05:40:39.871Z,55.91
2022-08-10T05:41:44.494Z,55.10
2022-08-10T05:42:40.852Z,55.20
2022-08-10T05:43:39.843Z,54.60
2022-08-10T05:44:39.853Z,54.90
2022-08-10T05:46:16.856Z,54.68
2022-08-10T05:46:40.929Z,54.68
2022-08-10T05:48:55.005Z,54.58
2022-08-10T05:48:56.379Z,55.08
2022-08-10T05:49:40.805Z,54.97
2022-08-10T05:50:39.771Z,54.68
2022-08-10T05:51:39.765Z,54.58
2022-08-10T05:52:39.746Z,54.88
2022-08-10T05:54:00.910Z,54.58
2022-08-10T05:54:40.749Z,54.17
2022-08-10T05:55:39.717Z,54.17
2022-08-10T05:56:55.170Z,54.47
2022-08-10T05:57:40.687Z,54.58
2022-08-10T05:58:39.699Z,54.65
2022-08-10T06:00:11.074Z,54.95
2022-08-10T06:00:48.359Z,54.25
2022-08-10T06:01:40.688Z,54.55
2022-08-10T06:02:39.640Z,54.45
2022-08-10T06:03:39.638Z,54.45
2022-08-10T06:04:39.640Z,54.35
2022-08-10T06:05:39.613Z,54.55
2022-08-10T06:06:39.600Z,54.45
2022-08-10T06:07:39.593Z,54.35
2022-08-10T06:08:39.577Z,54.32
2022-08-10T06:09:59.165Z,54.22
2022-08-10T06:10:59.771Z,53.82
2022-08-10T06:12:27.686Z,53.72
2022-08-10T06:12:54.059Z,53.62
2022-08-10T06:13:59.780Z,53.42
2022-08-10T06:14:40.534Z,53.42
2022-08-10T06:15:50.756Z,53.72
2022-08-10T06:16:40.487Z,53.52
2022-08-10T06:17:39.488Z,53.12
2022-08-10T06:18:39.473Z,53.42
2022-08-10T06:19:39.488Z,53.59
2022-08-10T06:20:39.447Z,53.39
2022-08-10T06:21:39.438Z,53.69
2022-08-10T06:22:40.419Z,53.30
2022-08-10T06:23:39.443Z,53.30
2022-08-10T06:24:55.912Z,53.30
2022-08-10T06:26:11.214Z,52.89
2022-08-10T06:26:40.379Z,53.09
2022-08-10T06:27:39.378Z,52.87
2022-08-10T06:28:39.360Z,53.27
2022-08-10T06:29:39.400Z,52.87
2022-08-10T06:30:39.352Z,53.17
2022-08-10T06:31:48.089Z,53.27
2022-08-10T06:32:40.312Z,52.87
2022-08-10T06:33:39.315Z,52.87
2022-08-10T06:34:39.322Z,53.37
2022-08-10T06:35:39.303Z,53.47
2022-08-10T06:36:39.282Z,53.17
2022-08-10T06:37:39.279Z,52.44
2022-08-10T06:38:39.253Z,52.64
2022-08-10T06:39:39.405Z,53.44
2022-08-10T06:40:39.237Z,52.94
2022-08-10T06:42:14.841Z,53.05
2022-08-10T06:42:40.213Z,52.94
2022-08-10T06:43:39.205Z,52.84
2022-08-10T06:44:39.216Z,53.12
2022-08-10T06:45:39.188Z,52.62
2022-08-10T06:46:39.176Z,52.42
2022-08-10T06:47:39.170Z,52.92
2022-08-10T06:48:39.150Z,52.72
2022-08-10T06:49:39.168Z,53.12
2022-08-10T06:50:55.985Z,52.22
2022-08-10T06:51:40.119Z,52.39
2022-08-10T06:52:39.120Z,52.00
2022-08-10T06:53:52.159Z,52.00
2022-08-10T06:54:40.109Z,52.00
2022-08-10T06:55:40.192Z,52.29
2022-08-10T06:56:50.922Z,52.00
2022-08-10T06:57:40.065Z,51.89
2022-08-10T06:58:39.052Z,51.79
2022-08-10T06:59:39.062Z,51.87
2022-08-10T07:00:39.075Z,51.87
2022-08-10T07:01:39.015Z,51.77
2022-08-10T07:02:39.020Z,51.97
2022-08-10T07:03:38.994Z,52.07
2022-08-10T07:04:39.012Z,52.27
2022-08-10T07:05:38.976Z,52.37
2022-08-10T07:06:38.955Z,51.97
2022-08-10T07:07:38.956Z,52.07
2022-08-10T07:08:38.935Z,52.17
2022-08-10T07:09:38.962Z,52.47
2022-08-10T07:10:45.570Z,52.87
2022-08-10T07:11:39.906Z,52.87
2022-08-10T07:12:38.898Z,52.55
2022-08-10T07:14:15.252Z,52.74
2022-08-10T07:14:39.897Z,52.84
2022-08-10T07:15:59.727Z,52.44
2022-08-10T07:16:39.861Z,52.04
2022-08-10T07:17:39.777Z,52.34
2022-08-10T07:18:38.838Z,52.04
2022-08-10T07:19:49.940Z,51.62
2022-08-10T07:20:39.811Z,51.52
2022-08-10T07:21:38.812Z,51.22
2022-08-10T07:23:08.307Z,51.22
2022-08-10T07:23:57.350Z,51.02
2022-08-10T07:24:39.792Z,50.72
2022-08-10T07:25:38.764Z,50.70
2022-08-10T07:26:38.755Z,50.30
2022-08-10T07:27:40.659Z,50.79
2022-08-10T07:28:39.735Z,50.20
2022-08-10T07:29:54.148Z,50.49
2022-08-10T07:30:39.743Z,50.60
2022-08-10T07:31:56.137Z,50.49
2022-08-10T07:32:39.723Z,49.50
2022-08-10T07:33:38.686Z,49.70
2022-08-10T07:34:38.667Z,50.10
2022-08-10T07:35:43.403Z,49.60
2022-08-10T07:36:39.649Z,49.70
2022-08-10T07:37:38.639Z,50.00
2022-08-10T07:38:38.630Z,50.07
2022-08-10T07:40:02.069Z,49.98
2022-08-10T07:40:39.703Z,49.27
2022-08-10T07:41:38.601Z,49.27
2022-08-10T07:42:43.473Z,49.48
2022-08-10T07:43:39.589Z,49.98
2022-08-10T07:44:38.571Z,49.98
2022-08-10T07:45:38.582Z,49.95
2022-08-10T07:46:38.556Z,49.55
2022-08-10T07:47:52.781Z,49.15
2022-08-10T07:48:39.525Z,49.25
2022-08-10T07:49:38.514Z,49.85
2022-08-10T07:50:38.524Z,49.33
2022-08-10T07:51:38.515Z,48.33
2022-08-10T07:52:38.485Z,48.43
2022-08-10T07:53:38.494Z,48.53
2022-08-10T07:54:38.474Z,49.03
2022-08-10T07:56:03.554Z,48.71
2022-08-10T07:56:48.847Z,49.10
2022-08-10T07:57:40.230Z,48.01
2022-08-10T07:58:38.433Z,48.11
2022-08-10T07:59:38.411Z,48.61
2022-08-10T08:00:38.428Z,48.71
2022-08-10T08:01:38.488Z,47.69
2022-08-10T08:02:38.372Z,47.09
2022-08-10T08:03:38.368Z,47.59
2022-08-10T08:04:38.358Z,47.47
2022-08-10T08:05:58.464Z,47.56
2022-08-10T08:06:39.334Z,47.77
2022-08-10T08:07:38.323Z,47.96
2022-08-10T08:08:38.313Z,47.44
2022-08-10T08:09:38.311Z,47.74
2022-08-10T08:10:39.312Z,46.05
2022-08-10T08:11:38.283Z,45.14
2022-08-10T08:12:38.495Z,45.14
2022-08-10T08:13:38.273Z,45.31
2022-08-10T08:14:38.255Z,44.92
2022-08-10T08:16:20.785Z,45.89
2022-08-10T08:16:39.251Z,46.08
2022-08-10T08:17:38.225Z,45.59
2022-08-10T08:18:38.206Z,45.37
2022-08-10T08:19:41.114Z,45.67
2022-08-10T08:20:39.207Z,45.56
2022-08-10T08:24:04.544Z,44.85
2022-08-10T08:24:07.237Z,45.07
2022-08-10T08:24:08.884Z,44.75
2022-08-10T08:24:39.301Z,42.77
2022-08-10T08:25:38.160Z,42.85
2022-08-10T08:26:38.131Z,43.71
2022-08-10T08:27:38.120Z,43.91
2022-08-10T08:28:38.114Z,43.00
2022-08-10T08:29:38.099Z,42.60
2022-08-10T08:30:38.110Z,42.31
2022-08-10T08:31:38.082Z,42.78
2022-08-10T08:32:39.063Z,42.19
2022-08-10T08:33:41.754Z,42.36
2022-08-10T08:34:38.055Z,42.36
2022-08-10T08:35:38.062Z,42.64
2022-08-10T08:36:38.024Z,40.96
2022-08-10T08:38:29.290Z,39.85
2022-08-10T08:38:39.018Z,41.14
2022-08-10T08:39:38.098Z,41.81
2022-08-10T08:40:38.008Z,40.72
2022-08-10T08:41:37.975Z,41.00
2022-08-10T08:42:38.233Z,41.30
2022-08-10T08:43:37.948Z,40.48
2022-08-10T08:44:37.946Z,39.89
2022-08-10T08:45:37.959Z,38.79
2022-08-10T08:46:38.929Z,38.69
2022-08-10T08:48:04.961Z,39.38
2022-08-10T08:48:38.900Z,39.58
2022-08-10T08:50:04.520Z,39.58
2022-08-10T08:50:38.901Z,38.79
2022-08-10T08:52:09.335Z,38.79
2022-08-10T08:52:38.863Z,39.36
2022-08-10T08:54:02.106Z,38.37
2022-08-10T08:54:38.854Z,37.57
2022-08-10T08:56:03.783Z,38.14
2022-08-10T08:56:38.825Z,36.84
2022-08-10T08:57:49.801Z,37.63
2022-08-10T08:58:38.795Z,37.61
2022-08-10T08:59:37.785Z,36.53
2022-08-10T09:00:37.803Z,36.02
2022-08-10T09:01:40.938Z,36.32
2022-08-10T09:02:37.945Z,36.88
2022-08-10T09:03:37.747Z,37.16
2022-08-10T09:04:37.747Z,35.69
2022-08-10T09:05:58.570Z,35.30
2022-08-10T09:06:38.728Z,36.08
2022-08-10T09:07:59.258Z,35.39
2022-08-10T09:08:38.700Z,35.39
2022-08-10T09:09:37.722Z,35.77
2022-08-10T09:10:37.914Z,35.87
2022-08-10T09:11:37.691Z,36.74
2022-08-10T09:12:37.758Z,34.97
2022-08-10T09:13:37.671Z,34.36
2022-08-10T09:14:37.655Z,34.36
2022-08-10T09:15:39.470Z,33.67
2022-08-10T09:16:37.667Z,34.06
2022-08-10T09:17:37.615Z,34.75
2022-08-10T09:18:37.606Z,33.95
2022-08-10T09:19:37.597Z,33.46
2022-08-10T09:20:37.595Z,33.54
2022-08-10T09:21:43.214Z,33.07
2022-08-10T09:22:38.569Z,33.64
2022-08-10T09:24:05.081Z,33.34
2022-08-10T09:24:38.697Z,32.25
2022-08-10T09:25:37.528Z,31.74
2022-08-10T09:26:37.559Z,32.81
2022-08-10T09:27:37.513Z,31.71
2022-08-10T09:28:37.511Z,31.03
2022-08-10T09:29:37.511Z,29.74
2022-08-10T09:30:38.640Z,29.84
2022-08-10T09:31:39.323Z,30.51
2022-08-10T09:35:43.311Z,30.80
2022-08-10T09:36:23.863Z,28.23
2022-08-10T09:36:23.869Z,30.00
2022-08-10T09:36:26.782Z,30.38
2022-08-10T09:36:38.661Z,28.72
2022-08-10T09:37:39.958Z,28.33
2022-08-10T09:38:38.414Z,29.88
2022-08-10T09:40:06.720Z,29.20
2022-08-10T09:41:00.642Z,30.86
2022-08-10T09:41:38.453Z,29.79
2022-08-10T09:42:37.562Z,28.42
2022-08-10T09:43:37.471Z,28.22
2022-08-10T09:44:57.521Z,27.73
2022-08-10T09:45:38.346Z,27.91
2022-08-10T09:46:37.368Z,27.42
2022-08-10T09:48:01.352Z,27.03
2022-08-10T09:48:38.322Z,28.39
2022-08-10T09:49:54.430Z,25.75
2022-08-10T09:51:16.347Z,26.53
2022-08-10T09:51:47.028Z,26.91
2022-08-10T09:52:38.416Z,27.20
2022-08-10T09:53:37.312Z,27.48
2022-08-10T09:54:37.271Z,26.90
2022-08-10T09:56:18.281Z,26.90
2022-08-10T09:56:38.272Z,27.39
2022-08-10T09:57:44.988Z,26.21
2022-08-10T09:58:38.235Z,25.74
2022-08-10T10:00:00.276Z,26.80
2022-08-10T10:00:38.218Z,25.63
2022-08-10T10:01:57.970Z,25.53
2022-08-10T10:02:38.206Z,25.92
2022-08-10T10:03:37.266Z,25.73
2022-08-10T10:04:37.177Z,26.51
2022-08-10T10:05:37.167Z,26.50
2022-08-10T10:06:37.185Z,25.71
2022-08-10T10:07:37.453Z,25.42
2022-08-10T10:08:42.176Z,25.71
2022-08-10T10:09:38.129Z,25.52
2022-08-10T10:10:37.129Z,24.73
2022-08-10T10:11:38.132Z,25.12
2022-08-10T10:12:37.105Z,27.15
2022-08-10T10:13:49.989Z,25.10
2022-08-10T10:14:38.082Z,24.43
2022-08-10T10:15:37.160Z,24.32
2022-08-10T10:16:37.092Z,24.71
2022-08-10T10:17:37.173Z,23.93
2022-08-10T10:18:37.054Z,24.13
2022-08-10T10:19:40.487Z,24.13
2022-08-10T10:20:37.033Z,24.44
2022-08-10T10:21:54.621Z,24.63
2022-08-10T10:22:38.015Z,25.80
2022-08-10T10:23:37.003Z,25.70
2022-08-10T10:24:36.999Z,24.93
2022-08-10T10:25:50.737Z,25.69
2022-08-10T10:26:37.996Z,25.09
2022-08-10T10:27:37.120Z,24.12
2022-08-10T10:29:11.240Z,24.30
2022-08-10T10:29:57.450Z,24.88
2022-08-10T10:30:37.938Z,24.49
2022-08-10T10:31:36.964Z,23.79
2022-08-10T10:32:37.580Z,23.70
2022-08-10T10:33:36.908Z,24.18
2022-08-10T10:34:36.901Z,23.99
2022-08-10T10:35:36.911Z,24.77
2022-08-10T10:36:36.921Z,23.60
2022-08-10T10:38:10.344Z,23.50
2022-08-10T10:38:37.871Z,23.59
2022-08-10T10:39:36.893Z,23.69
2022-08-10T10:40:36.852Z,23.87
2022-08-10T10:42:03.574Z,24.55
2022-08-10T10:42:45.905Z,23.37
2022-08-10T10:43:37.824Z,22.20
2022-08-10T10:44:41.597Z,22.02
2022-08-10T10:45:42.012Z,22.79
2022-08-10T10:46:37.816Z,23.07
2022-08-10T10:47:36.977Z,23.75
2022-08-10T10:48:36.786Z,22.78
2022-08-10T10:49:36.767Z,22.78
2022-08-10T10:50:36.767Z,23.55
2022-08-10T10:51:36.767Z,22.49
2022-08-10T10:52:36.756Z,22.10
2022-08-10T10:53:36.741Z,22.30
2022-08-10T10:54:36.739Z,22.39
2022-08-10T10:56:13.696Z,22.10
2022-08-10T10:56:37.731Z,22.39
2022-08-10T10:57:59.026Z,22.39
2022-08-10T10:58:37.693Z,21.91
2022-08-10T10:59:55.851Z,21.81
2022-08-10T11:00:37.673Z,21.42
2022-08-10T11:01:36.763Z,22.10
2022-08-10T11:02:36.673Z,23.07
2022-08-10T11:03:36.660Z,22.02
2022-08-10T11:04:36.643Z,21.33
2022-08-10T11:05:36.633Z,21.43
2022-08-10T11:06:40.593Z,21.51
2022-08-10T11:07:36.818Z,21.70
2022-08-10T11:08:36.634Z,21.23
2022-08-10T11:10:05.146Z,21.41
2022-08-10T11:10:46.225Z,21.02
2022-08-10T11:12:01.246Z,22.08
2022-08-10T11:12:37.586Z,20.82
2022-08-10T11:14:24.950Z,21.39
2022-08-10T11:14:37.557Z,20.81
2022-08-10T11:15:42.818Z,20.23
2022-08-10T11:16:37.570Z,20.92
2022-08-10T11:17:36.685Z,22.56
2022-08-10T11:18:36.528Z,21.88
2022-08-10T11:20:00.316Z,21.98
2022-08-10T11:20:37.510Z,22.16
2022-08-10T11:21:36.524Z,21.00
2022-08-10T11:22:37.176Z,20.70
2022-08-10T11:23:36.484Z,20.61
2022-08-10T11:24:46.864Z,21.95
2022-08-10T11:25:37.477Z,21.08
2022-08-10T11:26:36.483Z,21.56
2022-08-10T11:27:36.744Z,21.95
2022-08-10T11:28:37.142Z,22.24
2022-08-10T11:29:36.435Z,21.75
2022-08-10T11:30:36.434Z,21.27
2022-08-10T11:31:36.444Z,22.63
2022-08-10T11:32:36.415Z,21.45
2022-08-10T11:33:57.057Z,21.26
2022-08-10T11:34:48.237Z,21.45
2022-08-10T11:35:37.385Z,21.92
2022-08-10T11:36:36.395Z,20.19
2022-08-10T11:38:31.194Z,19.43
2022-08-10T11:38:52.256Z,20.87
2022-08-10T11:39:37.393Z,21.07
2022-08-10T11:40:37.380Z,21.26
2022-08-10T11:42:11.594Z,21.07
2022-08-10T11:42:37.333Z,20.97
2022-08-10T11:43:36.318Z,20.77
2022-08-10T11:44:36.309Z,20.01
2022-08-10T11:45:36.300Z,21.26
2022-08-10T11:46:36.320Z,21.45
2022-08-10T11:47:36.283Z,20.87
2022-08-10T11:48:54.440Z,20.86
2022-08-10T11:49:37.273Z,20.67
2022-08-10T11:50:36.261Z,21.64
2022-08-10T11:51:36.272Z,20.67
2022-08-10T11:52:36.394Z,21.53
2022-08-10T11:53:39.048Z,20.86
2022-08-10T11:54:36.223Z,20.86
2022-08-10T11:55:36.203Z,20.28
2022-08-10T11:56:36.224Z,21.62
2022-08-10T11:57:53.418Z,20.96
2022-08-10T11:58:37.185Z,20.19
2022-08-10T11:59:36.176Z,20.67
2022-08-10T12:00:36.171Z,20.67
2022-08-10T12:01:36.177Z,20.09
2022-08-10T12:02:36.558Z,20.48
2022-08-10T12:03:36.200Z,21.35
2022-08-10T12:04:36.138Z,22.24
2022-08-10T12:05:51.569Z,21.20
2022-08-10T12:06:54.700Z,22.20
2022-08-10T12:10:04.377Z,21.75
2022-08-10T12:10:05.837Z,22.03
2022-08-10T12:10:11.122Z,21.75
2022-08-10T12:10:40.741Z,21.25
2022-08-10T12:11:36.090Z,20.95
2022-08-10T12:12:36.173Z,21.13
2022-08-10T12:13:36.063Z,21.04
2022-08-10T12:14:36.054Z,21.75
2022-08-10T12:15:36.032Z,22.45
2022-08-10T12:16:36.053Z,23.65
2022-08-10T12:17:36.015Z,24.34
2022-08-10T12:18:36.013Z,24.84
2022-08-10T12:19:58.668Z,24.22
2022-08-10T12:20:36.994Z,23.52
2022-08-10T12:21:36.007Z,22.92
2022-08-10T12:22:36.126Z,22.63
2022-08-10T12:23:39.192Z,22.23
2022-08-10T12:24:35.958Z,21.94
2022-08-10T12:25:55.622Z,22.31
2022-08-10T12:26:36.978Z,22.61
2022-08-10T12:27:35.929Z,22.90
2022-08-10T12:28:49.772Z,22.79
2022-08-10T12:29:37.036Z,23.38
2022-08-10T12:30:35.900Z,22.54
2022-08-10T12:31:35.920Z,23.14
2022-08-10T12:32:35.999Z,23.63
2022-08-10T12:34:01.492Z,23.73
2022-08-10T12:34:36.863Z,24.72
2022-08-10T12:35:35.874Z,25.80
2022-08-10T12:36:35.871Z,23.67
2022-08-10T12:37:35.842Z,23.78
2022-08-10T12:38:35.833Z,24.10
2022-08-10T12:39:35.881Z,23.80
2022-08-10T12:40:36.898Z,24.08
2022-08-10T12:41:44.387Z,24.06
2022-08-10T12:42:40.594Z,23.36
2022-08-10T12:44:07.287Z,23.36
2022-08-10T12:44:42.068Z,23.65
2022-08-10T12:45:36.757Z,23.94
2022-08-10T12:46:35.777Z,23.45
2022-08-10T12:47:35.747Z,23.35
2022-08-10T12:48:35.728Z,24.80
2022-08-10T12:49:35.729Z,23.74
2022-08-10T12:50:35.716Z,24.34
2022-08-10T12:51:35.730Z,25.62
2022-08-10T12:52:35.853Z,25.25